createdAt,value
2022-11-18T00:00:22.051Z,986
2022-11-18T00:01:38.416Z,986
2022-11-18T00:02:54.660Z,986
2022-11-18T00:06:43.380Z,986
2022-11-18T00:09:15.861Z,986
2022-11-18T00:13:04.584Z,986
2022-11-18T00:14:20.813Z,986
2022-11-18T00:15:37.053Z,986
2022-11-18T00:16:53.291Z,986
2022-11-18T00:20:42.013Z,986.1
2022-11-18T00:24:30.737Z,986
2022-11-18T00:28:19.457Z,986.2
2022-11-18T00:32:08.174Z,986.2
2022-11-18T00:33:24.424Z,986.1
2022-11-18T00:38:29.369Z,986.1
2022-11-18T00:39:45.620Z,986.2
2022-11-18T00:41:01.848Z,986.1
2022-11-18T00:43:34.334Z,986.1
2022-11-18T00:44:50.584Z,986
2022-11-18T00:49:55.655Z,986.1
2022-11-18T00:51:11.958Z,986.1
2022-11-18T00:52:28.260Z,986.1
2022-11-18T00:54:59.922Z,986.1
2022-11-18T00:56:16.229Z,986.1
2022-11-18T00:57:32.516Z,986.1
2022-11-18T00:58:48.828Z,986.1
2022-11-18T01:01:21.427Z,986.2
2022-11-18T01:02:37.726Z,986.2
2022-11-18T01:03:54.037Z,986.2
2022-11-18T01:06:26.634Z,986.2
2022-11-18T01:07:42.924Z,986.2
2022-11-18T01:08:59.233Z,986.2
2022-11-18T01:10:15.540Z,986.2
2022-11-18T01:14:04.441Z,986.3
2022-11-18T01:15:20.741Z,986.2
2022-11-18T01:19:09.652Z,986.1
2022-11-18T01:20:25.951Z,986.2
2022-11-18T01:21:42.259Z,986.1
2022-11-18T01:24:14.862Z,986.2
2022-11-18T01:26:47.468Z,986.2
2022-11-18T01:29:20.059Z,986.1
2022-11-18T01:31:52.660Z,986
2022-11-18T01:33:08.959Z,986.1
2022-11-18T01:36:57.871Z,986.1
2022-11-18T01:38:14.182Z,986.1
2022-11-18T01:42:02.153Z,986.1
2022-11-18T01:43:18.457Z,986
2022-11-18T01:45:51.067Z,986.1
2022-11-18T01:47:07.354Z,986.1
2022-11-18T01:48:23.660Z,986
2022-11-18T01:49:39.961Z,986
2022-11-18T01:50:56.258Z,986
2022-11-18T01:52:12.560Z,986
2022-11-18T01:54:44.125Z,986
2022-11-18T01:58:32.837Z,985.9
2022-11-18T02:01:05.454Z,986
2022-11-18T02:03:37.944Z,986.1
2022-11-18T02:04:53.194Z,986
2022-11-18T02:06:09.436Z,986.1
2022-11-18T02:08:41.918Z,986.1
2022-11-18T02:09:58.158Z,986.1
2022-11-18T02:13:46.858Z,986.1
2022-11-18T02:15:03.114Z,986.2
2022-11-18T02:16:19.344Z,986.2
2022-11-18T02:17:35.592Z,986.1
2022-11-18T02:18:51.817Z,986.1
2022-11-18T02:25:12.056Z,986.2
2022-11-18T02:26:28.293Z,986.1
2022-11-18T02:27:43.537Z,986.2
2022-11-18T02:28:58.809Z,986.1
2022-11-18T02:30:15.038Z,986.1
2022-11-18T02:31:31.274Z,986.1
2022-11-18T02:32:47.520Z,986.1
2022-11-18T02:34:03.757Z,986.1
2022-11-18T02:35:20.011Z,986.1
2022-11-18T02:36:36.235Z,986.1
2022-11-18T02:37:52.494Z,986.1
2022-11-18T02:39:08.714Z,986.1
2022-11-18T02:41:41.214Z,986.1
2022-11-18T02:44:13.681Z,986.2
2022-11-18T02:45:29.926Z,986.2
2022-11-18T02:48:02.404Z,986.3
2022-11-18T02:49:18.633Z,986.2
2022-11-18T02:50:34.884Z,986.2
2022-11-18T02:51:50.143Z,986.2
2022-11-18T02:53:06.369Z,986.2
2022-11-18T02:54:22.619Z,986.2
2022-11-18T02:56:55.110Z,986.2
2022-11-18T02:58:11.344Z,986.2
2022-11-18T02:59:26.597Z,986.2
2022-11-18T03:00:42.959Z,986.2
2022-11-18T03:01:59.199Z,986.1
2022-11-18T03:03:15.437Z,986.1
2022-11-18T03:05:47.922Z,986.2
2022-11-18T03:07:04.151Z,986.2
2022-11-18T03:09:36.633Z,986.2
2022-11-18T03:12:09.109Z,986.2
2022-11-18T03:13:25.358Z,986.2
2022-11-18T03:17:14.071Z,986.2
2022-11-18T03:18:29.335Z,986.3
2022-11-18T03:19:45.566Z,986.3
2022-11-18T03:21:01.815Z,986.4
2022-11-18T03:23:38.281Z,986.4
2022-11-18T03:24:50.519Z,986.4
2022-11-18T03:26:06.767Z,986.4
2022-11-18T03:27:23.005Z,986.5
2022-11-18T03:29:55.486Z,986.5
2022-11-18T03:32:27.979Z,986.5
2022-11-18T03:33:44.227Z,986.5
2022-11-18T03:35:00.448Z,986.6
2022-11-18T03:38:49.177Z,986.6
2022-11-18T03:40:05.422Z,986.7
2022-11-18T03:41:20.668Z,986.7
2022-11-18T03:42:36.927Z,986.7
2022-11-18T03:43:53.164Z,986.8
2022-11-18T03:45:08.403Z,986.8
2022-11-18T03:46:24.647Z,986.8
2022-11-18T03:47:40.902Z,986.8
2022-11-18T03:48:57.140Z,986.8
2022-11-18T03:50:13.378Z,986.9
2022-11-18T03:51:29.617Z,986.9
2022-11-18T03:52:44.881Z,986.9
2022-11-18T03:54:01.111Z,987
2022-11-18T03:55:17.351Z,987
2022-11-18T03:56:32.620Z,987
2022-11-18T03:57:47.870Z,986.9
2022-11-18T03:59:04.107Z,987.1
2022-11-18T04:00:20.356Z,987
2022-11-18T04:01:36.596Z,987
2022-11-18T04:02:52.834Z,987
2022-11-18T04:04:09.068Z,987
2022-11-18T04:05:25.308Z,987
2022-11-18T04:09:14.025Z,987
2022-11-18T04:10:30.271Z,987
2022-11-18T04:11:46.519Z,987
2022-11-18T04:13:02.746Z,987
2022-11-18T04:14:18.017Z,987
2022-11-18T04:15:33.277Z,986.9
2022-11-18T04:16:49.509Z,987
2022-11-18T04:18:05.757Z,987
2022-11-18T04:19:21.984Z,987
2022-11-18T04:20:38.234Z,987
2022-11-18T04:23:10.698Z,987.1
2022-11-18T04:24:26.941Z,987.1
2022-11-18T04:25:43.190Z,987
2022-11-18T04:26:59.419Z,987.1
2022-11-18T04:30:48.154Z,987
2022-11-18T04:32:04.438Z,987
2022-11-18T04:33:20.726Z,987
2022-11-18T04:34:37.148Z,987
2022-11-18T04:35:53.443Z,987
2022-11-18T04:37:09.731Z,987
2022-11-18T04:38:26.045Z,987
2022-11-18T04:39:42.326Z,987
2022-11-18T04:40:58.614Z,987
2022-11-18T04:42:13.931Z,987
2022-11-18T04:43:29.257Z,987
2022-11-18T04:44:45.545Z,987
2022-11-18T04:46:01.851Z,987
2022-11-18T04:47:18.139Z,987
2022-11-18T04:48:34.419Z,987
2022-11-18T04:49:50.730Z,987.1
2022-11-18T04:51:07.027Z,987.1
2022-11-18T04:52:23.309Z,987.1
2022-11-18T04:53:38.625Z,987
2022-11-18T04:54:53.943Z,987.1
2022-11-18T04:56:09.255Z,987.1
2022-11-18T04:57:25.551Z,987.1
2022-11-18T04:58:41.851Z,987.1
2022-11-18T04:59:59.207Z,987.1
2022-11-18T05:01:14.429Z,987.2
2022-11-18T05:02:30.730Z,987.2
2022-11-18T05:03:47.033Z,987.2
2022-11-18T05:05:03.328Z,987.2
2022-11-18T05:06:19.614Z,987.2
2022-11-18T05:07:35.894Z,987.3
2022-11-18T05:08:51.218Z,987.3
2022-11-18T05:11:23.803Z,987.3
2022-11-18T05:12:40.095Z,987.3
2022-11-18T05:13:56.402Z,987.3
2022-11-18T05:15:12.683Z,987.3
2022-11-18T05:16:28.985Z,987.3
2022-11-18T05:17:45.285Z,987.3
2022-11-18T05:19:01.570Z,987.3
2022-11-18T05:20:16.900Z,987.2
2022-11-18T05:21:33.193Z,987.3
2022-11-18T05:24:05.902Z,987.4
2022-11-18T05:25:22.181Z,987.3
2022-11-18T05:26:37.511Z,987.3
2022-11-18T05:27:52.810Z,987.3
2022-11-18T05:29:09.105Z,987.3
2022-11-18T05:30:25.000Z,987.4
2022-11-18T05:31:41.706Z,987.4
2022-11-18T05:32:58.002Z,987.4
2022-11-18T05:34:14.285Z,987.5
2022-11-18T05:35:30.580Z,987.5
2022-11-18T05:36:46.886Z,987.5
2022-11-18T05:38:03.162Z,987.5
2022-11-18T05:39:18.492Z,987.6
2022-11-18T05:40:34.775Z,987.5
2022-11-18T05:41:51.075Z,987.6
2022-11-18T05:43:06.400Z,987.6
2022-11-18T05:44:22.692Z,987.6
2022-11-18T05:45:38.976Z,987.6
2022-11-18T05:46:55.264Z,987.7
2022-11-18T05:48:11.565Z,987.7
2022-11-18T05:49:27.855Z,987.7
2022-11-18T05:50:44.167Z,987.7
2022-11-18T05:52:00.455Z,987.7
2022-11-18T05:53:16.750Z,987.8
2022-11-18T05:54:33.052Z,987.7
2022-11-18T05:55:49.331Z,987.7
2022-11-18T05:57:05.627Z,987.8
2022-11-18T05:58:21.919Z,987.8
2022-11-18T05:59:38.219Z,987.9
2022-11-18T06:00:54.518Z,987.8
2022-11-18T06:02:09.826Z,987.9
2022-11-18T06:03:26.114Z,987.9
2022-11-18T06:04:42.413Z,988
2022-11-18T06:05:57.734Z,987.9
2022-11-18T06:07:13.041Z,988
2022-11-18T06:08:28.358Z,988
2022-11-18T06:09:43.676Z,988
2022-11-18T06:10:59.965Z,988
2022-11-18T06:12:16.256Z,988
2022-11-18T06:13:32.560Z,988
2022-11-18T06:14:48.845Z,988
2022-11-18T06:16:05.154Z,988
2022-11-18T06:17:21.437Z,988.1
2022-11-18T06:18:37.728Z,988.1
2022-11-18T06:19:54.040Z,988.1
2022-11-18T06:21:09.344Z,988.1
2022-11-18T06:22:25.653Z,988.1
2022-11-18T06:23:41.946Z,988.2
2022-11-18T06:24:58.246Z,988.1
2022-11-18T06:26:14.522Z,988.2
2022-11-18T06:27:30.826Z,988.2
2022-11-18T06:28:47.117Z,988.2
2022-11-18T06:30:03.410Z,988.2
2022-11-18T06:31:19.701Z,988.2
2022-11-18T06:32:36.002Z,988.2
2022-11-18T06:33:52.296Z,988.3
2022-11-18T06:35:07.607Z,988.3
2022-11-18T06:36:22.910Z,988.3
2022-11-18T06:37:38.241Z,988.3
2022-11-18T06:38:53.547Z,988.3
2022-11-18T06:40:09.840Z,988.3
2022-11-18T06:41:26.132Z,988.3
2022-11-18T06:42:42.428Z,988.3
2022-11-18T06:43:58.710Z,988.4
2022-11-18T06:45:15.022Z,988.4
2022-11-18T06:46:31.310Z,988.3
2022-11-18T06:47:47.609Z,988.4
2022-11-18T06:49:03.897Z,988.4
2022-11-18T06:50:20.211Z,988.4
2022-11-18T06:51:36.492Z,988.5
2022-11-18T06:52:52.797Z,988.4
2022-11-18T06:54:09.077Z,988.4
2022-11-18T06:55:24.387Z,988.5
2022-11-18T06:56:40.694Z,988.5
2022-11-18T06:57:56.977Z,988.5
2022-11-18T06:59:13.270Z,988.5
2022-11-18T07:00:29.580Z,988.5
2022-11-18T07:01:45.865Z,988.5
2022-11-18T07:03:02.157Z,988.5
2022-11-18T07:04:17.482Z,988.5
2022-11-18T07:05:32.798Z,988.5
2022-11-18T07:06:49.077Z,988.6
2022-11-18T07:08:05.375Z,988.6
2022-11-18T07:09:21.667Z,988.6
2022-11-18T07:10:37.954Z,988.6
2022-11-18T07:11:54.250Z,988.7
2022-11-18T07:13:10.562Z,988.7
2022-11-18T07:14:26.853Z,988.7
2022-11-18T07:15:43.139Z,988.7
2022-11-18T07:16:59.452Z,988.7
2022-11-18T07:18:15.737Z,988.7
2022-11-18T07:19:32.017Z,988.7
2022-11-18T07:20:48.317Z,988.7
2022-11-18T07:22:03.635Z,988.8
2022-11-18T07:23:19.923Z,988.7
2022-11-18T07:24:36.228Z,988.8
2022-11-18T07:25:52.522Z,988.7
2022-11-18T07:27:08.801Z,988.7
2022-11-18T07:28:25.100Z,988.8
2022-11-18T07:29:41.406Z,988.8
2022-11-18T07:30:56.726Z,988.8
2022-11-18T07:32:12.029Z,988.8
2022-11-18T07:33:27.343Z,988.8
2022-11-18T07:34:42.646Z,988.8
2022-11-18T07:35:58.950Z,988.8
2022-11-18T07:37:14.265Z,988.8
2022-11-18T07:38:29.581Z,988.9
2022-11-18T07:39:45.868Z,988.9
2022-11-18T07:41:02.161Z,988.9
2022-11-18T07:42:18.474Z,988.9
2022-11-18T07:43:34.751Z,988.9
2022-11-18T07:44:51.047Z,989
2022-11-18T07:46:07.340Z,988.9
2022-11-18T07:47:23.635Z,988.9
2022-11-18T07:48:39.933Z,988.9
2022-11-18T07:49:56.230Z,988.9
2022-11-18T07:51:12.515Z,988.9
2022-11-18T07:52:28.833Z,988.9
2022-11-18T07:53:45.102Z,989
2022-11-18T07:55:00.420Z,989
2022-11-18T07:56:16.718Z,989
2022-11-18T07:57:32.999Z,989
2022-11-18T07:58:49.302Z,989
2022-11-18T08:00:05.590Z,989.1
2022-11-18T08:01:20.905Z,989.1
2022-11-18T08:02:36.233Z,989.1
2022-11-18T08:03:51.558Z,989.1
2022-11-18T08:05:06.850Z,989.1
2022-11-18T08:06:23.151Z,989.2
2022-11-18T08:07:39.438Z,989.2
2022-11-18T08:08:55.733Z,989.3
2022-11-18T08:10:12.043Z,989.2
2022-11-18T08:11:28.332Z,989.2
2022-11-18T08:12:44.621Z,989.3
2022-11-18T08:14:00.912Z,989.3
2022-11-18T08:15:17.224Z,989.3
2022-11-18T08:16:33.499Z,989.3
2022-11-18T08:17:49.804Z,989.4
2022-11-18T08:19:06.105Z,989.4
2022-11-18T08:20:22.398Z,989.3
2022-11-18T08:21:37.695Z,989.3
2022-11-18T08:22:54.007Z,989.3
2022-11-18T08:24:10.292Z,989.4
2022-11-18T08:25:26.595Z,989.4
2022-11-18T08:26:42.880Z,989.4
2022-11-18T08:27:59.168Z,989.5
2022-11-18T08:29:15.481Z,989.5
2022-11-18T08:30:30.774Z,989.5
2022-11-18T08:31:46.087Z,989.5
2022-11-18T08:33:01.424Z,989.5
2022-11-18T08:34:16.717Z,989.5
2022-11-18T08:35:33.027Z,989.5
2022-11-18T08:36:49.321Z,989.5
2022-11-18T08:38:05.603Z,989.5
2022-11-18T08:39:21.898Z,989.5
2022-11-18T08:40:38.208Z,989.6
2022-11-18T08:41:54.490Z,989.6
2022-11-18T08:43:10.784Z,989.7
2022-11-18T08:44:27.083Z,989.6
2022-11-18T08:45:43.383Z,989.6
2022-11-18T08:46:59.662Z,989.7
2022-11-18T08:48:15.963Z,989.7
2022-11-18T08:49:32.266Z,989.7
2022-11-18T08:50:47.577Z,989.7
2022-11-18T08:52:03.862Z,989.8
2022-11-18T08:53:20.160Z,989.8
2022-11-18T08:54:36.457Z,989.8
2022-11-18T08:55:52.763Z,989.8
2022-11-18T08:57:09.043Z,989.8
2022-11-18T08:58:25.347Z,989.8
2022-11-18T08:59:40.651Z,989.9
2022-11-18T09:00:55.962Z,989.9
2022-11-18T09:02:11.271Z,989.8
2022-11-18T09:03:26.599Z,989.9
2022-11-18T09:04:41.910Z,989.9
2022-11-18T09:05:57.209Z,989.9
2022-11-18T09:07:13.511Z,989.9
2022-11-18T09:08:29.800Z,989.9
2022-11-18T09:09:46.096Z,989.9
2022-11-18T09:11:02.398Z,990
2022-11-18T09:12:18.698Z,990
2022-11-18T09:13:34.977Z,989.9
2022-11-18T09:14:51.281Z,989.9
2022-11-18T09:16:07.576Z,990
2022-11-18T09:17:23.877Z,990
2022-11-18T09:18:40.180Z,990
2022-11-18T09:19:56.462Z,990
2022-11-18T09:21:12.755Z,990
2022-11-18T09:22:28.060Z,990.1
2022-11-18T09:23:44.367Z,990.1
2022-11-18T09:25:00.653Z,990.1
2022-11-18T09:26:16.960Z,990.2
2022-11-18T09:27:33.248Z,990.2
2022-11-18T09:28:49.540Z,990.2
2022-11-18T09:30:05.840Z,990.3
2022-11-18T09:31:21.157Z,990.3
2022-11-18T09:32:36.472Z,990.3
2022-11-18T09:33:51.788Z,990.3
2022-11-18T09:35:07.094Z,990.3
2022-11-18T09:36:23.376Z,990.3
2022-11-18T09:37:39.684Z,990.3
2022-11-18T09:38:55.978Z,990.4
2022-11-18T09:40:12.260Z,990.5
2022-11-18T09:41:28.564Z,990.5
2022-11-18T09:42:44.848Z,990.5
2022-11-18T09:44:01.161Z,990.6
2022-11-18T09:45:17.446Z,990.5
2022-11-18T09:46:33.737Z,990.5
2022-11-18T09:47:50.024Z,990.5
2022-11-18T09:49:06.346Z,990.5
2022-11-18T09:50:22.625Z,990.6
2022-11-18T09:51:37.938Z,990.5
2022-11-18T09:52:54.230Z,990.5
2022-11-18T09:54:10.536Z,990.6
2022-11-18T09:55:26.825Z,990.6
2022-11-18T09:56:43.117Z,990.6
2022-11-18T09:57:59.426Z,990.6
2022-11-18T09:59:15.711Z,990.6
2022-11-18T10:00:31.023Z,990.5
2022-11-18T10:01:46.333Z,990.6
2022-11-18T10:03:01.646Z,990.6
2022-11-18T10:04:16.961Z,990.6
2022-11-18T10:05:33.259Z,990.6
2022-11-18T10:06:49.555Z,990.6
2022-11-18T10:08:05.846Z,990.6
2022-11-18T10:09:22.140Z,990.6
2022-11-18T10:10:38.438Z,990.7
2022-11-18T10:11:54.743Z,990.7
2022-11-18T10:13:11.011Z,990.7
2022-11-18T10:14:27.326Z,990.7
2022-11-18T10:15:43.629Z,990.7
2022-11-18T10:16:59.902Z,990.7
2022-11-18T10:18:16.198Z,990.8
2022-11-18T10:19:32.508Z,990.8
2022-11-18T10:20:47.797Z,990.8
2022-11-18T10:22:04.087Z,990.8
2022-11-18T10:23:20.394Z,990.8
2022-11-18T10:24:36.701Z,990.8
2022-11-18T10:25:52.974Z,990.8
2022-11-18T10:27:09.284Z,990.8
2022-11-18T10:28:25.588Z,990.8
2022-11-18T10:29:40.895Z,990.8
2022-11-18T10:30:56.191Z,990.9
2022-11-18T10:32:11.516Z,990.9
2022-11-18T10:33:26.826Z,990.9
2022-11-18T10:34:43.125Z,990.9
2022-11-18T10:35:58.443Z,991
2022-11-18T10:37:14.722Z,991
2022-11-18T10:38:31.026Z,991
2022-11-18T10:39:47.313Z,991
2022-11-18T10:41:03.624Z,991
2022-11-18T10:42:19.913Z,991
2022-11-18T10:43:36.196Z,991.1
2022-11-18T10:44:52.493Z,991.1
2022-11-18T10:46:08.798Z,991
2022-11-18T10:47:25.082Z,991.1
2022-11-18T10:48:41.388Z,991.1
2022-11-18T10:49:57.688Z,991.1
2022-11-18T10:51:13.979Z,991.2
2022-11-18T10:52:29.274Z,991.2
2022-11-18T10:53:45.588Z,991.2
2022-11-18T10:55:01.883Z,991.2
2022-11-18T10:56:18.182Z,991.2
2022-11-18T10:57:34.474Z,991.2
2022-11-18T10:58:49.799Z,991.2
2022-11-18T11:00:05.100Z,991.3
2022-11-18T11:01:20.424Z,991.4
2022-11-18T11:02:35.727Z,991.3
2022-11-18T11:03:52.015Z,991.3
2022-11-18T11:05:08.325Z,991.4
2022-11-18T11:06:24.618Z,991.4
2022-11-18T11:07:40.898Z,991.4
2022-11-18T11:08:57.187Z,991.4
2022-11-18T11:10:13.491Z,991.4
2022-11-18T11:11:29.803Z,991.5
2022-11-18T11:12:46.081Z,991.4
2022-11-18T11:14:02.387Z,991.4
2022-11-18T11:15:18.658Z,991.5
2022-11-18T11:16:34.964Z,991.6
2022-11-18T11:17:51.274Z,991.5
2022-11-18T11:19:06.562Z,991.6
2022-11-18T11:20:22.877Z,991.6
2022-11-18T11:21:39.169Z,991.6
2022-11-18T11:22:55.458Z,991.5
2022-11-18T11:24:11.759Z,991.6
2022-11-18T11:25:28.051Z,991.6
2022-11-18T11:26:44.342Z,991.5
2022-11-18T11:27:59.654Z,991.6
2022-11-18T11:29:14.974Z,991.6
2022-11-18T11:30:30.271Z,991.6
2022-11-18T11:31:45.592Z,991.6
2022-11-18T11:33:00.909Z,991.6
2022-11-18T11:34:16.237Z,991.6
2022-11-18T11:35:32.533Z,991.7
2022-11-18T11:36:48.807Z,991.6
2022-11-18T11:38:05.103Z,991.7
2022-11-18T11:39:21.416Z,991.7
2022-11-18T11:40:37.708Z,991.7
2022-11-18T11:41:53.995Z,991.7
2022-11-18T11:43:10.292Z,991.7
2022-11-18T11:44:26.580Z,991.7
2022-11-18T11:45:42.887Z,991.7
2022-11-18T11:46:59.179Z,991.7
2022-11-18T11:48:15.460Z,991.7
2022-11-18T11:49:31.745Z,991.7
2022-11-18T11:50:47.073Z,991.7
2022-11-18T11:52:03.374Z,991.7
2022-11-18T11:53:19.671Z,991.7
2022-11-18T11:54:35.960Z,991.7
2022-11-18T11:55:52.249Z,991.7
2022-11-18T11:57:08.555Z,991.7
2022-11-18T11:58:24.850Z,991.7
2022-11-18T11:59:40.154Z,991.7
2022-11-18T12:00:56.446Z,991.7
2022-11-18T12:02:11.766Z,991.7
2022-11-18T12:03:27.084Z,991.7
2022-11-18T12:04:42.388Z,991.7
2022-11-18T12:05:58.689Z,991.7
2022-11-18T12:07:14.964Z,991.7
2022-11-18T12:08:31.270Z,991.7
2022-11-18T12:09:47.571Z,991.7
2022-11-18T12:11:03.863Z,991.7
2022-11-18T12:12:20.155Z,991.8
2022-11-18T12:13:36.448Z,991.8
2022-11-18T12:14:51.762Z,991.7
2022-11-18T12:16:08.066Z,991.8
2022-11-18T12:17:23.359Z,991.8
2022-11-18T12:18:39.666Z,991.8
2022-11-18T12:19:55.968Z,991.8
2022-11-18T12:21:12.268Z,991.9
2022-11-18T12:22:28.545Z,991.9
2022-11-18T12:23:44.858Z,991.9
2022-11-18T12:25:01.135Z,991.9
2022-11-18T12:26:17.437Z,992
2022-11-18T12:27:33.726Z,992
2022-11-18T12:28:50.022Z,992
2022-11-18T12:30:06.317Z,992.1
2022-11-18T12:31:22.629Z,992
2022-11-18T12:32:38.913Z,992.1
2022-11-18T12:33:54.220Z,992.1
2022-11-18T12:35:10.508Z,992.1
2022-11-18T12:36:26.806Z,992
2022-11-18T12:37:43.100Z,992.1
2022-11-18T12:38:59.393Z,992.1
2022-11-18T12:40:15.692Z,992.1
2022-11-18T12:41:31.007Z,992
2022-11-18T12:42:46.332Z,992.1
2022-11-18T12:44:01.643Z,992.1
2022-11-18T12:45:16.953Z,992.2
2022-11-18T12:46:33.235Z,992.3
2022-11-18T12:47:49.529Z,992.2
2022-11-18T12:49:05.824Z,992.2
2022-11-18T12:50:22.127Z,992.3
2022-11-18T12:51:37.449Z,992.3
2022-11-18T12:52:52.770Z,992.3
2022-11-18T12:54:09.054Z,992.3
2022-11-18T12:55:25.343Z,992.3
2022-11-18T12:56:41.635Z,992.3
2022-11-18T12:57:57.938Z,992.3
2022-11-18T12:59:14.234Z,992.4
2022-11-18T13:00:30.516Z,992.3
2022-11-18T13:01:46.823Z,992.4
2022-11-18T13:03:03.113Z,992.4
2022-11-18T13:04:19.404Z,992.4
2022-11-18T13:05:35.697Z,992.4
2022-11-18T13:06:51.995Z,992.5
2022-11-18T13:08:08.291Z,992.4
2022-11-18T13:09:23.620Z,992.5
2022-11-18T13:10:39.902Z,992.4
2022-11-18T13:11:56.197Z,992.5
2022-11-18T13:13:12.486Z,992.5
2022-11-18T13:14:28.798Z,992.5
2022-11-18T13:15:45.080Z,992.5
2022-11-18T13:17:01.383Z,992.5
2022-11-18T13:18:16.687Z,992.6
2022-11-18T13:19:32.004Z,992.6
2022-11-18T13:20:48.304Z,992.6
2022-11-18T13:22:04.590Z,992.6
2022-11-18T13:23:20.890Z,992.5
2022-11-18T13:24:37.192Z,992.6
2022-11-18T13:25:53.475Z,992.6
2022-11-18T13:27:09.772Z,992.6
2022-11-18T13:28:26.067Z,992.6
2022-11-18T13:29:42.376Z,992.6
2022-11-18T13:30:58.660Z,992.6
2022-11-18T13:32:14.958Z,992.6
2022-11-18T13:33:31.242Z,992.6
2022-11-18T13:34:47.542Z,992.6
2022-11-18T13:36:02.851Z,992.6
2022-11-18T13:37:19.162Z,992.7
2022-11-18T13:38:35.440Z,992.7
2022-11-18T13:39:51.734Z,992.7
2022-11-18T13:41:08.000Z,992.7
2022-11-18T13:42:24.321Z,992.8
2022-11-18T13:43:40.621Z,992.8
2022-11-18T13:44:55.934Z,992.7
2022-11-18T13:46:11.263Z,992.9
2022-11-18T13:47:26.565Z,992.9
2022-11-18T13:48:41.878Z,992.9
2022-11-18T13:49:58.170Z,992.9
2022-11-18T13:51:14.460Z,992.9
2022-11-18T13:52:30.770Z,992.9
2022-11-18T13:53:47.058Z,993
2022-11-18T13:55:03.355Z,993
2022-11-18T13:56:19.637Z,993
2022-11-18T13:57:35.937Z,993
2022-11-18T13:58:52.242Z,993.1
2022-11-18T14:00:08.535Z,993.1
2022-11-18T14:01:24.817Z,993.1
2022-11-18T14:02:41.123Z,993.1
2022-11-18T14:03:57.407Z,993.1
2022-11-18T14:05:12.734Z,993.1
2022-11-18T14:06:29.013Z,993.1
2022-11-18T14:07:45.321Z,993.1
2022-11-18T14:09:01.618Z,993.1
2022-11-18T14:10:17.915Z,993.1
2022-11-18T14:11:34.195Z,993.1
2022-11-18T14:12:50.499Z,993.1
2022-11-18T14:14:05.805Z,993.2
2022-11-18T14:15:21.129Z,993.2
2022-11-18T14:16:36.451Z,993.2
2022-11-18T14:17:51.746Z,993.3
2022-11-18T14:19:07.072Z,993.3
2022-11-18T14:20:22.389Z,993.3
2022-11-18T14:21:38.672Z,993.4
2022-11-18T14:22:54.978Z,993.3
2022-11-18T14:24:11.266Z,993.4
2022-11-18T14:25:27.552Z,993.4
2022-11-18T14:26:43.860Z,993.4
2022-11-18T14:28:00.158Z,993.4
2022-11-18T14:29:15.470Z,993.4
2022-11-18T14:30:30.775Z,993.4
2022-11-18T14:31:47.079Z,993.4
2022-11-18T14:33:03.365Z,993.4
2022-11-18T14:34:19.665Z,993.5
2022-11-18T14:35:35.960Z,993.5
2022-11-18T14:36:52.257Z,993.5
2022-11-18T14:38:08.554Z,993.5
2022-11-18T14:39:24.835Z,993.6
2022-11-18T14:40:41.144Z,993.6
2022-11-18T14:41:57.440Z,993.6
2022-11-18T14:43:13.725Z,993.5
2022-11-18T14:44:30.015Z,993.6
2022-11-18T14:45:46.319Z,993.6
2022-11-18T14:47:01.625Z,993.6
2022-11-18T14:48:17.914Z,993.6
2022-11-18T14:49:34.224Z,993.7
2022-11-18T14:50:49.532Z,993.7
2022-11-18T14:52:05.831Z,993.8
2022-11-18T14:53:22.140Z,993.8
2022-11-18T14:54:38.414Z,993.9
2022-11-18T14:55:54.723Z,993.9
2022-11-18T14:57:11.018Z,993.9
2022-11-18T14:58:27.308Z,993.9
2022-11-18T14:59:43.592Z,993.9
2022-11-18T15:03:31.499Z,994
2022-11-18T15:04:47.805Z,994.1
2022-11-18T15:06:04.097Z,994.1
2022-11-18T15:07:20.391Z,994.1
2022-11-18T15:08:36.683Z,994.1
2022-11-18T15:09:53.136Z,994.1
2022-11-18T15:11:09.417Z,994
2022-11-18T15:12:24.735Z,994.1
2022-11-18T15:13:40.055Z,994.1
2022-11-18T15:14:56.351Z,994.1
2022-11-18T15:16:12.651Z,994.1
2022-11-18T15:17:28.941Z,994.1
2022-11-18T15:18:45.231Z,994.1
2022-11-18T15:21:17.808Z,994.1
2022-11-18T15:22:34.113Z,994
2022-11-18T15:23:50.411Z,994.1
2022-11-18T15:25:06.699Z,994.1
2022-11-18T15:26:22.993Z,994
2022-11-18T15:27:39.288Z,994.1
2022-11-18T15:28:55.591Z,994.1
2022-11-18T15:30:11.882Z,994.1
2022-11-18T15:31:28.183Z,994.1
2022-11-18T15:32:43.487Z,994.1
2022-11-18T15:33:59.797Z,994.1
2022-11-18T15:35:16.071Z,994.2
2022-11-18T15:36:32.369Z,994.2
2022-11-18T15:37:48.000Z,994.1
2022-11-18T15:39:04.951Z,994.2
2022-11-18T15:40:20.287Z,994.2
2022-11-18T15:41:36.573Z,994.2
2022-11-18T15:42:52.873Z,994.2
2022-11-18T15:44:09.171Z,994.2
2022-11-18T15:45:25.463Z,994.3
2022-11-18T15:46:40.773Z,994.3
2022-11-18T15:47:57.064Z,994.3
2022-11-18T15:49:12.376Z,994.4
2022-11-18T15:51:44.974Z,994.4
2022-11-18T15:53:01.229Z,994.4
2022-11-18T15:55:33.824Z,994.5
2022-11-18T15:56:50.134Z,994.5
2022-11-18T15:58:06.414Z,994.5
2022-11-18T15:59:22.708Z,994.5
2022-11-18T16:00:39.014Z,994.5
2022-11-18T16:03:11.606Z,994.5
2022-11-18T16:04:27.901Z,994.5
2022-11-18T16:05:44.200Z,994.5
2022-11-18T16:07:00.484Z,994.5
2022-11-18T16:08:16.774Z,994.5
2022-11-18T16:10:49.379Z,994.6
2022-11-18T16:12:05.667Z,994.6
2022-11-18T16:13:21.966Z,994.6
2022-11-18T16:15:54.545Z,994.6
2022-11-18T16:18:27.291Z,994.7
2022-11-18T16:19:42.590Z,994.7
2022-11-18T16:20:57.914Z,994.8
2022-11-18T16:22:14.203Z,994.7
2022-11-18T16:23:30.503Z,994.8
2022-11-18T16:27:19.387Z,994.8
2022-11-18T16:28:35.673Z,994.9
2022-11-18T16:29:51.971Z,994.9
2022-11-18T16:31:08.262Z,994.9
2022-11-18T16:33:40.895Z,994.9
2022-11-18T16:36:13.453Z,994.9
2022-11-18T16:37:29.745Z,994.9
2022-11-18T16:38:46.052Z,994.9
2022-11-18T16:41:18.628Z,994.9
2022-11-18T16:42:34.937Z,995
2022-11-18T16:43:51.232Z,994.9
2022-11-18T16:45:07.523Z,995
2022-11-18T16:46:23.000Z,995
2022-11-18T16:48:56.408Z,995
2022-11-18T16:50:12.704Z,995
2022-11-18T16:51:28.999Z,995
2022-11-18T16:52:45.295Z,995.1
2022-11-18T16:54:01.594Z,995.1
2022-11-18T16:55:17.903Z,995.2
2022-11-18T16:56:33.200Z,995.2
2022-11-18T16:57:49.490Z,995.2
2022-11-18T16:59:05.783Z,995.2
2022-11-18T17:04:10.968Z,995.2
2022-11-18T17:05:27.254Z,995.3
2022-11-18T17:07:59.857Z,995.3
2022-11-18T17:11:48.733Z,995.3
2022-11-18T17:13:05.033Z,995.3
2022-11-18T17:14:21.322Z,995.4
2022-11-18T17:15:37.627Z,995.4
2022-11-18T17:16:53.925Z,995.4
2022-11-18T17:18:10.225Z,995.5
2022-11-18T17:19:26.519Z,995.4
2022-11-18T17:20:42.798Z,995.4
2022-11-18T17:21:59.108Z,995.4
2022-11-18T17:23:15.388Z,995.4
2022-11-18T17:24:31.695Z,995.4
2022-11-18T17:27:04.000Z,995.4
2022-11-18T17:28:20.637Z,995.5
2022-11-18T17:29:36.991Z,995.4
2022-11-18T17:30:53.355Z,995.4
2022-11-18T17:32:09.710Z,995.5
2022-11-18T17:33:26.066Z,995.5
2022-11-18T17:34:42.419Z,995.5
2022-11-18T17:35:56.337Z,995.4
2022-11-18T17:37:14.084Z,995.6
2022-11-18T17:39:46.678Z,995.7
2022-11-18T17:41:02.970Z,995.6
2022-11-18T17:42:18.281Z,995.6
2022-11-18T17:43:34.572Z,995.7
2022-11-18T17:44:50.873Z,995.7
2022-11-18T17:46:07.164Z,995.7
2022-11-18T17:47:23.466Z,995.7
2022-11-18T17:48:39.771Z,995.7
2022-11-18T17:49:56.061Z,995.7
2022-11-18T17:52:28.649Z,995.8
2022-11-18T17:53:44.930Z,995.8
2022-11-18T17:55:01.241Z,995.8
2022-11-18T17:56:17.530Z,995.8
2022-11-18T17:57:33.861Z,995.8
2022-11-18T17:58:49.151Z,995.8
2022-11-18T18:00:05.420Z,995.9
2022-11-18T18:01:21.717Z,995.8
2022-11-18T18:02:37.072Z,995.9
2022-11-18T18:03:52.343Z,995.9
2022-11-18T18:05:08.687Z,996
2022-11-18T18:06:24.975Z,996
2022-11-18T18:07:41.240Z,996
2022-11-18T18:08:57.524Z,996.1
2022-11-18T18:10:13.835Z,996.1
2022-11-18T18:11:30.163Z,996.1
2022-11-18T18:12:46.416Z,996
2022-11-18T18:14:02.758Z,996.1
2022-11-18T18:15:19.037Z,996.1
2022-11-18T18:16:34.322Z,996.2
2022-11-18T18:17:49.681Z,996.2
2022-11-18T18:19:05.960Z,996.2
2022-11-18T18:20:22.255Z,996.2
2022-11-18T18:21:38.562Z,996.2
2022-11-18T18:22:54.861Z,996.3
2022-11-18T18:24:11.109Z,996.3
2022-11-18T18:25:27.401Z,996.3
2022-11-18T18:26:43.695Z,996.3